Lafayette, CO (80026)

12:42 PM MST on December 09, 2016 (GMT -0700)
Camp Mattubis | | Change Station

Elev 5358 ft 39.98 °N, 105.09 °W | Updated 7 seconds ago

Clear
Clear
41.2 °F
Feels Like 41 °F
N
0.0
Wind Variable Wind from South
Gusts 0.0 mph

Today
High -- | Low -- °F
--% Chance of Precip.
Yesterday
High -- | Low -- °F
Precip. -- in
Pressure 30.07 in
Visibility 10.0 miles
Clouds Clear
Windchill 41 °F
Dew Point 24 °F
Humidity 51%
Rainfall 0.07 in
Snow Depth Not available.
7:10 AM 4:35 PM
Waxing Gibbous, 76% visible
METAR KEIK 091934Z AUTO 00000KT 10SM CLR 00/M06 A3007 RMK AO2 T10051057
Pressure 30.07 in
Visibility 10.0 miles
Clouds Clear
Windchill 41 °F
Dew Point 24 °F
Humidity 51%
Rainfall 0.07 in
Snow Depth Not available.
7:10 AM 4:35 PM
Waxing Gibbous, 76% visible
METAR KEIK 091934Z AUTO 00000KT 10SM CLR 00/M06 A3007 RMK AO2 T10051057

10-Day Weather Forecast

Almanac

Astronomy

Dec. 09, 2016 Rise Set
Actual Time
Civil Twilight
Nautical Twilight
Astronomical Twilight
Moon
Length of Visible Light
Length of Day
Tomorrow will be .
, % of the Moon is Illuminated

Today's Extremes

State Highs State Lows

Community

WunderPhotos

Upload Photos

1,956,499 photos uploaded!

WunderBlog® & News

Nearby

Air Quality

  Air Quality AQ Index Pollutant
Not available.

Snow Depth

Station Depth Elevation

Earthquake Activity

City Distance Mag. Time & Date
Minimum magnitude displayed is 2.5.

Coastal Water Temperatures

Place Temperature

Stations

Nearby Weather Stations

Station Location Temp. Windchill Dew Point Humidity Wind Precip. Elev Updated Type
                   

Watches & Warnings

There are currently no watches in effect.